Time;durP1;ratioP1;P1;durP2;ratioP2;P2;SDS_P1;SDS_P2;PMS_P1;PMS_P2;Temp;Humidity;BMP_temperature;BMP_pressure;BME280_temperature;BME280_humidity;BME280_pressure;Samples;Min_cycle;Max_cycle;Signal;HPM_P1;HPM_P2
2022/06/23 00:01:00;;;;;;;19.30;7.68;;;16.60;99.90;;;;;;5053518;28;20021;-64
2022/06/23 00:03:30;;;;;;;24.95;7.90;;;16.60;99.90;;;;;;5053718;28;20054;-62
2022/06/23 00:06:00;;;;;;;19.95;7.43;;;16.60;99.90;;;;;;5052669;28;20021;-63
2022/06/23 00:08:27;;;;;;;19.23;8.20;;;16.60;99.90;;;;;;5053208;28;20047;-65
2022/06/23 00:11:00;;;;;;;17.63;7.88;;;16.60;99.90;;;;;;5053563;28;20029;-64
2022/06/23 00:13:34;;;;;;;17.17;7.75;;;16.60;99.90;;;;;;5053447;28;20028;-67
2022/06/23 00:16:01;;;;;;;18.77;7.53;;;16.60;99.90;;;;;;5053235;28;20032;-65
2022/06/23 00:18:33;;;;;;;22.10;7.80;;;16.60;99.90;;;;;;5053061;28;20442;-62
2022/06/23 00:21:00;;;;;;;15.65;7.95;;;16.60;99.90;;;;;;5051716;28;20074;-64
2022/06/23 00:23:30;;;;;;;16.60;7.47;;;16.60;99.90;;;;;;5052779;28;20025;-63
2022/06/23 00:26:04;;;;;;;18.67;7.40;;;16.60;99.90;;;;;;5052827;28;20017;-63
2022/06/23 00:28:36;;;;;;;15.70;7.30;;;16.50;99.90;;;;;;5052970;28;20012;-64
2022/06/23 00:31:05;;;;;;;16.60;7.93;;;16.60;99.90;;;;;;5052706;28;20039;-64
2022/06/23 00:33:39;;;;;;;18.10;7.95;;;16.50;99.90;;;;;;5052823;28;20029;-68
2022/06/23 00:36:58;;;;;;;15.88;7.38;;;16.50;99.90;;;;;;5052981;28;20407;-65
2022/06/23 00:39:34;;;;;;;20.15;7.70;;;16.50;99.90;;;;;;4991514;28;20074;-64
2022/06/23 00:42:03;;;;;;;18.15;7.15;;;16.50;99.90;;;;;;5044003;28;20029;-67
2022/06/23 00:44:43;;;;;;;17.40;8.00;;;16.50;99.90;;;;;;5053239;28;20037;-65
2022/06/23 00:47:16;;;;;;;17.20;7.97;;;16.50;99.90;;;;;;5053344;28;20073;-64
2022/06/23 00:50:04;;;;;;;14.07;6.95;;;16.50;99.90;;;;;;5052586;28;20096;-64
2022/06/23 00:52:49;;;;;;;15.18;7.50;;;16.40;99.90;;;;;;5051442;28;20083;-64
2022/06/23 00:55:38;;;;;;;16.42;7.82;;;16.40;99.90;;;;;;5051524;28;20021;-67
2022/06/23 00:58:35;;;;;;;14.40;7.35;;;16.40;99.90;;;;;;5050707;28;20056;-64
2022/06/23 01:01:10;;;;;;;14.38;7.38;;;16.40;99.90;;;;;;5048107;28;20521;-64
2022/06/23 01:04:03;;;;;;;18.60;7.70;;;16.40;99.90;;;;;;5052746;28;20052;-65
2022/06/23 01:06:37;;;;;;;17.80;7.47;;;16.40;99.90;;;;;;5053933;28;20025;-65
2022/06/23 01:09:28;;;;;;;15.50;7.72;;;16.40;99.90;;;;;;5056410;28;20020;-64
2022/06/23 01:12:03;;;;;;;19.90;7.47;;;16.40;99.90;;;;;;5056296;28;20021;-64
2022/06/23 01:14:40;;;;;;;17.27;7.70;;;16.40;99.90;;;;;;5056356;28;20037;-64
2022/06/23 01:17:20;;;;;;;15.43;7.90;;;16.40;99.90;;;;;;5056612;28;20120;-63
2022/06/23 01:19:58;;;;;;;19.80;7.80;;;16.40;99.90;;;;;;5056338;28;20025;-64
2022/06/23 01:22:28;;;;;;;19.50;7.68;;;16.40;99.90;;;;;;5056153;28;20359;-64
2022/06/23 01:25:31;;;;;;;17.25;8.10;;;16.30;99.90;;;;;;5055681;28;20033;-66
2022/06/23 01:28:10;;;;;;;19.25;8.65;;;16.30;99.90;;;;;;5054165;28;20024;-63
2022/06/23 01:31:03;;;;;;;14.80;7.85;;;16.30;99.90;;;;;;5053491;28;20041;-64
2022/06/23 01:33:34;;;;;;;17.77;8.38;;;16.30;99.90;;;;;;5047008;28;20122;-63
2022/06/23 01:36:17;;;;;;;20.10;8.20;;;16.30;99.90;;;;;;5056048;28;20048;-63
2022/06/23 01:39:12;;;;;;;16.85;7.82;;;16.30;99.90;;;;;;5054968;28;20131;-64
2022/06/23 01:42:04;;;;;;;20.60;9.35;;;16.30;99.90;;;;;;5053846;28;20016;-63
2022/06/23 01:44:51;;;;;;;13.82;7.45;;;16.30;99.90;;;;;;5054363;28;20024;-63
2022/06/23 01:47:20;;;;;;;15.80;7.60;;;16.30;99.90;;;;;;5054742;28;20103;-62
2022/06/23 01:49:50;;;;;;;18.77;8.15;;;16.30;99.90;;;;;;5037659;28;20027;-63
2022/06/23 01:52:20;;;;;;;19.55;7.97;;;16.30;99.90;;;;;;5052544;28;20029;-64
2022/06/23 01:54:51;;;;;;;17.20;9.07;;;16.30;99.90;;;;;;5053965;28;20036;-62
2022/06/23 01:57:31;;;;;;;19.02;8.13;;;16.30;99.90;;;;;;5055394;28;20017;-66
2022/06/23 02:00:08;;;;;;;22.30;8.52;;;16.30;99.90;;;;;;5055120;28;20053;-64
2022/06/23 02:02:56;;;;;;;19.45;8.25;;;16.30;99.90;;;;;;5055154;28;20022;-63
2022/06/23 02:05:46;;;;;;;20.98;9.20;;;16.30;99.90;;;;;;5050312;28;20481;-63
2022/06/23 02:08:30;;;;;;;16.80;8.18;;;16.30;99.90;;;;;;5047817;28;20462;-65
2022/06/23 02:11:16;;;;;;;19.95;8.88;;;16.30;99.90;;;;;;5053990;28;20024;-63
2022/06/23 02:14:13;;;;;;;19.13;8.93;;;16.30;99.90;;;;;;5054091;28;20511;-65
2022/06/23 02:17:00;;;;;;;17.23;8.15;;;16.30;99.90;;;;;;5053642;28;20023;-67
2022/06/23 02:19:44;;;;;;;22.13;9.93;;;16.20;99.90;;;;;;5052652;28;20028;-64
2022/06/23 02:22:34;;;;;;;21.92;9.93;;;16.30;99.90;;;;;;5052405;28;20451;-65
2022/06/23 02:25:08;;;;;;;17.17;8.88;;;16.20;99.90;;;;;;5053263;28;20061;-68
2022/06/23 02:27:44;;;;;;;21.50;9.30;;;16.20;99.90;;;;;;5052340;28;20284;-65
2022/06/23 02:30:43;;;;;;;19.70;9.77;;;16.20;99.90;;;;;;5051922;28;20029;-69
2022/06/23 02:33:18;;;;;;;18.65;8.95;;;16.20;99.90;;;;;;5027441;28;20051;-67
2022/06/23 02:36:18;;;;;;;21.65;9.95;;;16.20;99.90;;;;;;5054501;28;20344;-64
2022/06/23 02:38:50;;;;;;;21.95;10.35;;;16.20;99.90;;;;;;5049490;28;20029;-63
2022/06/23 02:41:20;;;;;;;19.75;9.75;;;16.20;99.90;;;;;;5057319;28;20451;-63
2022/06/23 02:43:52;;;;;;;21.85;9.65;;;16.20;99.90;;;;;;5050708;28;20047;-63
2022/06/23 02:46:23;;;;;;;22.88;9.68;;;16.20;99.90;;;;;;5054440;28;20045;-63
2022/06/23 02:49:04;;;;;;;23.52;10.55;;;16.20;99.90;;;;;;5052580;28;20016;-66
2022/06/23 02:51:51;;;;;;;19.73;9.05;;;16.20;99.90;;;;;;5052393;28;20447;-64
2022/06/23 02:54:33;;;;;;;19.20;8.88;;;16.20;99.90;;;;;;5054075;28;20580;-63
2022/06/23 02:57:13;;;;;;;22.13;10.40;;;16.10;99.90;;;;;;5053508;28;20115;-64
2022/06/23 03:00:05;;;;;;;17.20;8.35;;;16.10;99.90;;;;;;5054778;28;20080;-61
2022/06/23 03:02:42;;;;;;;16.73;8.93;;;16.10;99.90;;;;;;5054929;28;20142;-65
2022/06/23 03:05:19;;;;;;;18.92;9.05;;;16.10;99.90;;;;;;5054478;28;20462;-64
2022/06/23 03:08:00;;;;;;;21.52;9.65;;;16.10;99.90;;;;;;5054768;28;20016;-63
2022/06/23 03:10:52;;;;;;;18.73;9.43;;;16.10;99.90;;;;;;5054820;28;20024;-63
2022/06/23 03:13:34;;;;;;;20.15;9.13;;;16.10;99.90;;;;;;5053916;28;20067;-63
2022/06/23 03:16:15;;;;;;;19.52;9.32;;;16.10;99.90;;;;;;5054746;28;20044;-67
2022/06/23 03:19:02;;;;;;;20.92;10.32;;;16.20;99.90;;;;;;5054481;28;20027;-63
2022/06/23 03:22:04;;;;;;;19.70;8.98;;;16.10;99.90;;;;;;5054250;28;20458;-65
2022/06/23 03:25:14;;;;;;;22.80;8.95;;;16.10;99.90;;;;;;5030427;28;20140;-63
2022/06/23 03:27:48;;;;;;;17.45;8.93;;;16.10;99.90;;;;;;5054169;28;20029;-63
2022/06/23 03:30:19;;;;;;;19.17;8.23;;;16.10;99.90;;;;;;5052152;28;20024;-65
2022/06/23 03:33:06;;;;;;;21.25;8.85;;;16.10;99.90;;;;;;5054111;28;20068;-62
2022/06/23 03:35:56;;;;;;;17.90;9.00;;;16.10;99.90;;;;;;5054068;28;20032;-64
2022/06/23 03:42:11;;;;;;;20.83;9.30;;;16.10;99.90;;;;;;5032161;28;20112;-67
2022/06/23 03:45:11;;;;;;;19.35;9.07;;;16.10;99.90;;;;;;5030572;28;20529;-63
2022/06/23 03:47:55;;;;;;;17.98;8.55;;;16.10;99.90;;;;;;5034000;28;20059;-66
2022/06/23 03:50:28;;;;;;;18.52;8.73;;;16.10;99.90;;;;;;5034242;28;20080;-63
2022/06/23 03:53:02;;;;;;;21.02;9.25;;;16.10;99.90;;;;;;5033447;28;20029;-65
2022/06/23 03:55:36;;;;;;;19.13;7.97;;;16.20;99.90;;;;;;5033628;28;20045;-63
2022/06/23 03:58:15;;;;;;;19.73;8.25;;;16.20;99.90;;;;;;5033421;28;20029;-67
2022/06/23 04:00:47;;;;;;;18.85;10.15;;;16.20;99.90;;;;;;5033757;28;20028;-64
2022/06/23 04:03:24;;;;;;;18.95;8.75;;;16.30;99.90;;;;;;5033423;28;20018;-65
2022/06/23 04:05:56;;;;;;;20.77;8.85;;;16.30;99.90;;;;;;5033750;28;20510;-64
2022/06/23 04:08:30;;;;;;;20.20;8.68;;;16.30;99.90;;;;;;5033561;28;20100;-65
2022/06/23 04:11:43;;;;;;;19.15;9.75;;;16.30;99.90;;;;;;5033214;28;20035;-63
2022/06/23 04:13:45;;;;;;;19.13;9.05;;;16.40;99.90;;;;;;5033011;28;20037;-64
2022/06/23 04:16:13;;;;;;;17.17;8.43;;;16.40;99.90;;;;;;5033293;28;20451;-63
2022/06/23 04:18:45;;;;;;;21.02;9.43;;;16.40;99.90;;;;;;5033223;28;20029;-66
2022/06/23 04:21:19;;;;;;;17.65;8.77;;;16.40;99.90;;;;;;5033263;28;20017;-65
2022/06/23 04:23:49;;;;;;;20.15;8.80;;;16.50;99.90;;;;;;5033287;28;20029;-66
2022/06/23 04:26:36;;;;;;;19.35;8.90;;;16.50;99.90;;;;;;5032868;28;20017;-63
2022/06/23 04:29:39;;;;;;;18.98;8.48;;;16.60;99.90;;;;;;5033264;28;20033;-63
2022/06/23 04:32:33;;;;;;;17.85;8.18;;;16.60;99.90;;;;;;5023503;28;20073;-63
2022/06/23 04:35:04;;;;;;;16.00;8.02;;;16.70;99.90;;;;;;5033195;28;20040;-65
2022/06/23 04:37:46;;;;;;;17.90;8.25;;;16.70;99.90;;;;;;5033453;28;20025;-64
2022/06/23 04:40:21;;;;;;;16.97;8.03;;;16.80;99.90;;;;;;5045198;28;20035;-63
2022/06/23 04:42:57;;;;;;;16.25;7.57;;;16.90;99.90;;;;;;5073101;28;20021;-66
2022/06/23 04:45:44;;;;;;;16.02;8.27;;;16.90;99.90;;;;;;5072890;28;20024;-65
2022/06/23 04:48:17;;;;;;;22.08;8.75;;;17.00;99.90;;;;;;5072996;28;20024;-62
2022/06/23 04:50:48;;;;;;;16.38;8.32;;;17.10;99.90;;;;;;5072829;28;20029;-63
2022/06/23 04:53:24;;;;;;;15.57;8.40;;;17.20;99.90;;;;;;5072436;28;20029;-62
2022/06/23 04:56:02;;;;;;;17.17;7.65;;;17.20;99.90;;;;;;5072624;28;20043;-62
2022/06/23 04:58:28;;;;;;;16.05;6.78;;;17.30;99.90;;;;;;5072397;28;20029;-65
2022/06/23 05:00:54;;;;;;;16.10;7.70;;;17.40;99.90;;;;;;5072574;28;20442;-63
2022/06/23 05:03:25;;;;;;;15.30;7.28;;;17.50;99.90;;;;;;5073012;28;20063;-65
2022/06/23 05:06:19;;;;;;;16.23;7.60;;;17.60;99.90;;;;;;5068561;28;20108;-63
2022/06/23 05:08:47;;;;;;;16.08;7.65;;;17.70;99.90;;;;;;5040768;28;20039;-63
2022/06/23 05:11:16;;;;;;;16.75;7.32;;;17.80;99.90;;;;;;5053137;28;20062;-63
2022/06/23 05:13:49;;;;;;;17.50;7.78;;;18.00;99.90;;;;;;5052851;28;20017;-63
2022/06/23 05:16:28;;;;;;;18.13;7.40;;;18.10;99.90;;;;;;5052844;28;20481;-63
2022/06/23 05:18:57;;;;;;;17.90;8.50;;;18.20;99.90;;;;;;5052887;28;20025;-64
2022/06/23 05:21:30;;;;;;;16.83;7.90;;;18.40;99.90;;;;;;5052992;28;20459;-65
2022/06/23 05:24:21;;;;;;;16.85;7.03;;;18.60;99.90;;;;;;5052443;28;20370;-63
2022/06/23 05:26:50;;;;;;;16.48;7.15;;;18.80;99.90;;;;;;5052648;28;20113;-64
2022/06/23 05:29:21;;;;;;;15.80;7.45;;;19.20;99.90;;;;;;5052790;28;20064;-68
2022/06/23 05:31:50;;;;;;;13.18;6.25;;;19.70;99.90;;;;;;5053187;28;20135;-67
2022/06/23 05:34:26;;;;;;;15.32;6.13;;;20.20;99.90;;;;;;5051244;28;20390;-64
2022/06/23 05:37:15;;;;;;;15.73;7.00;;;20.80;99.90;;;;;;5052827;28;20032;-66
2022/06/23 05:39:57;;;;;;;14.95;6.30;;;21.60;99.90;;;;;;5052954;28;20028;-64
2022/06/23 05:42:26;;;;;;;14.68;5.35;;;22.40;99.90;;;;;;5052952;28;20040;-63
2022/06/23 05:45:03;;;;;;;13.50;5.70;;;23.00;99.90;;;;;;5052755;28;20025;-63
2022/06/23 05:47:31;;;;;;;15.32;6.25;;;23.60;99.90;;;;;;5052564;28;20029;-64
2022/06/23 05:50:03;;;;;;;12.57;6.00;;;24.20;99.90;;;;;;5052455;28;20055;-67
2022/06/23 05:52:49;;;;;;;13.52;6.05;;;24.80;99.90;;;;;;5053926;28;20045;-64
2022/06/23 05:55:30;;;;;;;16.00;5.57;;;25.30;99.90;;;;;;5056388;28;20454;-63
2022/06/23 05:58:10;;;;;;;14.10;7.00;;;25.90;98.70;;;;;;5056265;28;20025;-64
2022/06/23 06:00:54;;;;;;;12.13;6.15;;;26.30;98.10;;;;;;5056259;28;20254;-63
2022/06/23 06:03:24;;;;;;;13.43;6.90;;;26.90;96.90;;;;;;5055901;28;20036;-66
2022/06/23 06:05:53;;;;;;;13.68;6.50;;;27.40;96.00;;;;;;5056011;28;20017;-63
2022/06/23 06:08:30;;;;;;;11.30;6.13;;;27.80;94.80;;;;;;5055768;28;20021;-63
2022/06/23 06:10:57;;;;;;;11.05;5.55;;;28.10;94.20;;;;;;5055662;28;20378;-67
2022/06/23 06:13:32;;;;;;;11.68;5.78;;;28.40;93.00;;;;;;5056050;28;20025;-68
2022/06/23 06:15:59;;;;;;;10.73;5.45;;;28.60;92.70;;;;;;5055305;28;20386;-65
2022/06/23 06:18:35;;;;;;;13.75;6.15;;;28.60;92.10;;;;;;5054641;28;20075;-63
2022/06/23 06:21:05;;;;;;;14.52;5.78;;;28.80;91.70;;;;;;5055732;28;20025;-65
2022/06/23 06:23:51;;;;;;;12.75;5.10;;;29.00;91.20;;;;;;5055740;28;20026;-64
2022/06/23 06:26:21;;;;;;;12.20;5.80;;;29.40;90.60;;;;;;5055846;28;20504;-64
2022/06/23 06:28:47;;;;;;;12.10;5.78;;;29.60;90.10;;;;;;5054439;28;20513;-65
2022/06/23 06:31:26;;;;;;;11.70;5.47;;;29.90;90.00;;;;;;5055316;28;20021;-64
2022/06/23 06:34:03;;;;;;;10.27;5.18;;;30.20;88.30;;;;;;5055665;28;20021;-65
2022/06/23 06:36:34;;;;;;;15.35;5.65;;;30.60;87.40;;;;;;5055431;28;20021;-63
2022/06/23 06:39:21;;;;;;;13.38;6.43;;;30.80;85.90;;;;;;5055710;28;20112;-67
2022/06/23 06:41:53;;;;;;;12.63;6.47;;;31.00;85.20;;;;;;5051102;28;20025;-64
2022/06/23 06:44:19;;;;;;;12.30;6.07;;;31.30;83.80;;;;;;5055488;28;20082;-63
2022/06/23 06:46:45;;;;;;;10.48;5.53;;;31.50;83.00;;;;;;5055287;28;20025;-63
2022/06/23 06:49:21;;;;;;;10.02;5.10;;;31.70;82.50;;;;;;5055257;28;20032;-66
2022/06/23 06:51:49;;;;;;;10.02;4.82;;;32.10;81.00;;;;;;5055343;28;20029;-64
2022/06/23 06:54:28;;;;;;;8.43;4.80;;;32.30;79.20;;;;;;5055036;28;20028;-64
2022/06/23 06:57:01;;;;;;;12.48;4.95;;;32.40;79.00;;;;;;5055276;28;20028;-64
2022/06/23 06:59:37;;;;;;;12.93;4.65;;;32.50;78.80;;;;;;5055128;28;20028;-64
2022/06/23 07:02:14;;;;;;;8.70;5.05;;;32.80;78.40;;;;;;5055111;28;20382;-64
2022/06/23 07:05:11;;;;;;;9.20;4.53;;;33.20;76.70;;;;;;5053707;28;20035;-65
2022/06/23 07:07:41;;;;;;;9.02;4.45;;;33.50;76.10;;;;;;5054906;28;20045;-64
2022/06/23 07:10:16;;;;;;;7.35;4.22;;;33.90;75.00;;;;;;5055066;28;20036;-68
2022/06/23 07:12:49;;;;;;;9.43;4.28;;;34.10;73.80;;;;;;5055150;28;20036;-68
2022/06/23 07:15:49;;;;;;;11.05;4.53;;;34.20;72.80;;;;;;5053343;28;20048;-64
2022/06/23 07:18:40;;;;;;;7.57;4.35;;;34.20;72.30;;;;;;5053277;28;20024;-67
2022/06/23 07:21:28;;;;;;;12.02;4.05;;;34.30;72.20;;;;;;5053591;28;20051;-65
2022/06/23 07:24:20;;;;;;;8.05;4.28;;;34.50;71.10;;;;;;5051901;28;20493;-64
2022/06/23 07:27:12;;;;;;;7.75;4.38;;;34.70;70.40;;;;;;5053267;28;20028;-66
2022/06/23 07:29:59;;;;;;;9.35;4.53;;;34.80;70.70;;;;;;5052219;28;20029;-66
2022/06/23 07:32:28;;;;;;;9.80;4.50;;;35.00;69.90;;;;;;5054308;28;20052;-65
2022/06/23 07:34:59;;;;;;;8.70;4.40;;;35.00;69.10;;;;;;5052956;28;20120;-67
2022/06/23 07:37:27;;;;;;;9.27;3.70;;;35.10;69.40;;;;;;5054320;28;20025;-65
2022/06/23 07:40:00;;;;;;;10.20;4.20;;;35.20;68.80;;;;;;5053986;28;20021;-64
2022/06/23 07:43:00;;;;;;;6.95;4.00;;;35.20;68.20;;;;;;5054306;28;20067;-63
2022/06/23 07:45:46;;;;;;;10.80;4.70;;;35.20;68.50;;;;;;5034426;28;20139;-64
2022/06/23 07:48:12;;;;;;;6.53;4.50;;;35.30;68.00;;;;;;5034386;28;20033;-66
2022/06/23 07:50:37;;;;;;;10.52;4.68;;;35.10;68.10;;;;;;5033990;28;20017;-65
2022/06/23 07:53:04;;;;;;;8.90;4.45;;;34.80;68.20;;;;;;5034407;28;20025;-64
2022/06/23 07:55:41;;;;;;;7.13;4.05;;;34.50;67.80;;;;;;5038802;28;20028;-64
2022/06/23 07:58:07;;;;;;;8.77;3.78;;;34.10;68.00;;;;;;5054044;28;20024;-67
2022/06/23 08:00:37;;;;;;;7.65;4.10;;;33.60;68.60;;;;;;5052499;28;20017;-63
2022/06/23 08:03:11;;;;;;;11.52;4.70;;;33.00;69.20;;;;;;5053212;28;20382;-64
2022/06/23 08:05:45;;;;;;;16.23;6.78;;;32.70;70.30;;;;;;5053893;28;20159;-64
2022/06/23 08:08:18;;;;;;;11.13;5.63;;;32.30;72.00;;;;;;5065188;28;20032;-64
2022/06/23 08:10:45;;;;;;;15.85;6.13;;;32.00;72.10;;;;;;5053764;28;20325;-65
2022/06/23 08:13:27;;;;;;;13.18;6.30;;;31.70;73.40;;;;;;5053838;28;20087;-65
2022/06/23 08:16:57;;;;;;;12.55;6.00;;;31.70;73.00;;;;;;5053610;28;20059;-68
2022/06/23 08:19:14;;;;;;;13.35;6.35;;;31.70;72.80;;;;;;5044589;28;20152;-66
2022/06/23 08:21:53;;;;;;;12.40;5.78;;;32.10;72.50;;;;;;5053516;28;20032;-65
2022/06/23 08:24:25;;;;;;;12.88;5.82;;;32.60;71.90;;;;;;5053508;28;20013;-64
2022/06/23 08:27:01;;;;;;;8.77;5.35;;;33.20;71.00;;;;;;5053360;28;20047;-66
2022/06/23 08:29:41;;;;;;;13.13;6.20;;;34.00;70.30;;;;;;5053000;28;20021;-65
2022/06/23 08:32:08;;;;;;;9.18;5.70;;;34.90;69.10;;;;;;5053027;28;20270;-66
2022/06/23 08:34:37;;;;;;;11.07;5.95;;;35.70;68.00;;;;;;5053765;28;20032;-64
2022/06/23 08:37:14;;;;;;;13.93;6.20;;;36.60;65.50;;;;;;5053262;28;20021;-65
2022/06/23 08:39:51;;;;;;;12.50;6.30;;;37.20;64.60;;;;;;5052654;28;20099;-66
2022/06/23 08:42:55;;;;;;;10.05;5.35;;;37.80;63.80;;;;;;5045894;28;20025;-65
2022/06/23 08:45:39;;;;;;;10.05;5.68;;;38.30;62.30;;;;;;5032898;28;20021;-65
2022/06/23 08:48:28;;;;;;;8.63;5.18;;;38.90;61.60;;;;;;5047402;28;20033;-65
2022/06/23 08:50:56;;;;;;;9.27;4.78;;;39.40;60.20;;;;;;5032186;28;20090;-65
2022/06/23 08:53:54;;;;;;;9.15;4.88;;;39.70;59.20;;;;;;5041642;28;20029;-65
2022/06/23 08:56:28;;;;;;;8.23;4.40;;;39.70;58.60;;;;;;5052431;28;20020;-66
2022/06/23 08:59:03;;;;;;;9.18;4.10;;;39.70;58.50;;;;;;5051410;28;20028;-65
2022/06/23 09:01:40;;;;;;;8.90;4.45;;;39.80;58.30;;;;;;5053043;28;20033;-68
2022/06/23 09:04:20;;;;;;;7.68;4.22;;;40.20;57.80;;;;;;5052955;28;20040;-69
2022/06/23 09:06:56;;;;;;;10.25;4.35;;;40.70;57.60;;;;;;5052502;28;20437;-65
2022/06/23 09:09:25;;;;;;;8.68;4.55;;;41.00;56.50;;;;;;5053131;28;20136;-66
2022/06/23 09:12:12;;;;;;;7.20;4.13;;;40.90;56.30;;;;;;5052858;28;20053;-65
2022/06/23 09:14:57;;;;;;;10.35;4.18;;;40.80;56.50;;;;;;5054352;28;20068;-65
2022/06/23 09:17:44;;;;;;;7.97;4.07;;;41.10;55.90;;;;;;5059094;28;20021;-65
2022/06/23 09:20:33;;;;;;;7.13;4.00;;;41.40;55.50;;;;;;5058850;28;20040;-67
2022/06/23 09:23:24;;;;;;;11.10;4.00;;;41.90;54.70;;;;;;5058745;28;20039;-68
2022/06/23 09:26:06;;;;;;;11.82;3.95;;;42.40;54.10;;;;;;5050417;28;20040;-65
2022/06/23 09:28:55;;;;;;;9.98;4.28;;;42.80;54.20;;;;;;5055009;28;20025;-68
2022/06/23 09:31:30;;;;;;;8.63;4.45;;;42.90;53.30;;;;;;5063516;28;20041;-65
2022/06/23 09:34:12;;;;;;;9.45;4.22;;;42.90;52.60;;;;;;5067915;28;20029;-64
2022/06/23 09:37:03;;;;;;;7.22;4.40;;;43.10;52.50;;;;;;5059138;28;20406;-65
2022/06/23 09:39:44;;;;;;;7.28;4.00;;;43.40;52.20;;;;;;5056022;28;20117;-66
2022/06/23 09:42:12;;;;;;;;;;;43.80;51.30;;;;;;5056784;28;20126;-67
2022/06/23 09:44:51;;;;;;;8.38;4.75;;;44.00;51.30;;;;;;5056599;28;19904;-67
2022/06/23 09:47:31;;;;;;;8.63;4.45;;;44.20;50.50;;;;;;5055645;28;20074;-65
2022/06/23 09:50:30;;;;;;;7.57;4.22;;;44.40;50.30;;;;;;5061249;28;20450;-64
2022/06/23 09:53:25;;;;;;;6.15;3.47;;;44.70;50.00;;;;;;5056125;28;20032;-64
2022/06/23 09:56:15;;;;;;;10.00;4.40;;;44.80;49.40;;;;;;5055471;28;20518;-63
2022/06/23 09:58:56;;;;;;;9.45;5.10;;;44.70;48.80;;;;;;5055664;28;20025;-65
2022/06/23 10:01:29;;;;;;;;;;;44.70;48.40;;;;;;5056107;28;20074;-66
2022/06/23 10:04:34;;;;;;;9.48;4.75;;;44.70;48.40;;;;;;5049654;28;19928;-64
2022/06/23 10:07:16;;;;;;;8.82;4.40;;;45.00;48.10;;;;;;5055116;28;20029;-65
2022/06/23 10:09:48;;;;;;;10.38;4.72;;;44.90;47.20;;;;;;5045174;28;20052;-65
2022/06/23 10:12:32;;;;;;;11.25;4.20;;;44.60;47.80;;;;;;5054934;28;20020;-64
2022/06/23 10:15:04;;;;;;;9.18;4.32;;;44.70;47.80;;;;;;5036011;28;20030;-66
2022/06/23 10:17:46;;;;;;;8.88;4.55;;;44.70;47.60;;;;;;5035843;28;20060;-66
2022/06/23 10:20:20;;;;;;;9.00;4.75;;;44.50;46.90;;;;;;5035800;28;20053;-65
2022/06/23 10:23:00;;;;;;;7.30;4.40;;;44.20;47.10;;;;;;5050688;28;20013;-68
2022/06/23 10:25:41;;;;;;;9.67;4.47;;;44.10;47.30;;;;;;5046801;28;20087;-65
2022/06/23 10:28:33;;;;;;;12.25;4.53;;;44.50;47.30;;;;;;5062819;28;20763;-63
2022/06/23 10:31:17;;;;;;;9.32;3.92;;;44.80;46.90;;;;;;5039212;28;20093;-69
2022/06/23 10:34:19;;;;;;;8.20;4.97;;;45.40;46.80;;;;;;5069308;28;20037;-64
2022/06/23 10:36:54;;;;;;;9.70;4.63;;;45.30;46.90;;;;;;5056044;28;20032;-67
2022/06/23 10:39:31;;;;;;;6.00;4.28;;;45.10;47.30;;;;;;5073930;28;20021;-67
2022/06/23 10:42:21;;;;;;;7.82;4.28;;;45.00;46.70;;;;;;5047304;28;20025;-67
2022/06/23 10:44:54;;;;;;;;;;;45.20;46.90;;;;;;5055474;28;20032;-64
2022/06/23 10:47:47;;;;;;;11.00;4.70;;;45.50;46.60;;;;;;5054639;28;20334;-66
2022/06/23 10:50:30;;;;;;;10.93;4.60;;;45.10;46.70;;;;;;5054967;28;20378;-64
2022/06/23 10:53:19;;;;;;;10.13;4.80;;;45.20;47.20;;;;;;5054613;28;20104;-64
2022/06/23 10:56:00;;;;;;;9.43;4.85;;;45.40;46.80;;;;;;5058937;28;20033;-68
2022/06/23 10:58:52;;;;;;;9.82;4.85;;;45.40;47.20;;;;;;5051298;28;20370;-68
2022/06/23 11:01:46;;;;;;;10.65;4.55;;;45.60;47.00;;;;;;5055186;28;20047;-65
2022/06/23 11:04:49;;;;;;;8.75;5.25;;;45.90;46.80;;;;;;5039845;28;20060;-66
2022/06/23 11:07:54;;;;;;;10.65;5.45;;;46.10;46.90;;;;;;5055138;28;20033;-65
2022/06/23 11:11:00;;;;;;;7.38;4.90;;;46.00;46.90;;;;;;5059190;28;20053;-65
2022/06/23 11:13:51;;;;;;;8.90;4.50;;;45.90;47.10;;;;;;5015736;28;20120;-67
2022/06/23 11:16:44;;;;;;;14.38;5.70;;;45.90;47.10;;;;;;5057684;28;20047;-65
2022/06/23 11:19:34;;;;;;;9.13;4.70;;;46.00;47.00;;;;;;5066565;28;20052;-70
2022/06/23 11:22:04;;;;;;;11.90;4.85;;;46.20;46.90;;;;;;5042094;28;20017;-63
2022/06/23 11:25:01;;;;;;;12.15;5.10;;;46.00;47.10;;;;;;5066831;28;20028;-64
2022/06/23 11:27:35;;;;;;;11.57;5.47;;;46.10;47.00;;;;;;5070165;28;20149;-67
2022/06/23 11:30:15;;;;;;;9.95;4.88;;;46.20;46.80;;;;;;5042152;28;20017;-65
2022/06/23 11:33:01;;;;;;;10.02;5.15;;;45.90;47.00;;;;;;5064960;28;20102;-67
2022/06/23 11:35:26;;;;;;;12.40;4.78;;;45.90;47.00;;;;;;5061452;28;20074;-65
2022/06/23 11:38:19;;;;;;;8.75;4.35;;;45.90;46.80;;;;;;5054437;28;20046;-65
2022/06/23 11:41:19;;;;;;;9.73;4.47;;;46.10;46.40;;;;;;5053970;28;20047;-65
2022/06/23 11:43:57;;;;;;;;;;;45.70;47.00;;;;;;5031976;28;20032;-65
2022/06/23 11:46:41;;;;;;;12.15;6.18;;;45.50;46.70;;;;;;5034469;28;19920;-65
2022/06/23 11:49:33;;;;;;;12.10;4.53;;;45.30;47.10;;;;;;5047107;28;20025;-65
2022/06/23 11:52:03;;;;;;;11.05;5.53;;;45.20;47.30;;;;;;5033824;28;20021;-68
2022/06/23 11:54:42;;;;;;;9.10;5.35;;;45.40;47.00;;;;;;5052617;28;20033;-64
2022/06/23 11:57:26;;;;;;;11.50;4.65;;;44.90;47.60;;;;;;5053977;28;20013;-64
2022/06/23 12:00:03;;;;;;;13.27;4.20;;;44.70;47.90;;;;;;5057953;28;20108;-62
2022/06/23 12:02:30;;;;;;;10.15;4.20;;;44.90;47.60;;;;;;5060729;28;20085;-64
2022/06/23 12:05:20;;;;;;;9.15;3.38;;;45.20;47.40;;;;;;5053740;28;20126;-64
2022/06/23 12:07:58;;;;;;;11.98;3.70;;;44.50;47.60;;;;;;5054056;28;20017;-64
2022/06/23 12:10:27;;;;;;;12.90;4.80;;;43.70;48.80;;;;;;5053512;28;20053;-63
2022/06/23 12:12:56;;;;;;;11.02;4.53;;;42.80;49.50;;;;;;5053116;28;20153;-65
2022/06/23 12:15:28;;;;;;;13.65;4.95;;;42.40;50.20;;;;;;5053341;28;20021;-64
2022/06/23 12:17:59;;;;;;;10.48;4.13;;;42.70;50.30;;;;;;5044044;28;20033;-65
2022/06/23 12:20:37;;;;;;;11.38;4.80;;;42.50;50.40;;;;;;5032569;28;20025;-65
2022/06/23 12:23:09;;;;;;;14.02;4.55;;;41.70;51.10;;;;;;5031649;28;20029;-65
2022/06/23 12:26:03;;;;;;;11.80;5.32;;;41.30;51.90;;;;;;5031047;28;20029;-63
2022/06/23 12:28:45;;;;;;;13.15;5.63;;;41.30;52.30;;;;;;5030103;28;20365;-64
2022/06/23 12:31:52;;;;;;;15.00;6.18;;;41.70;51.90;;;;;;5031621;28;20025;-67
2022/06/23 12:34:47;;;;;;;15.07;5.55;;;41.90;52.00;;;;;;5027690;28;20131;-64
2022/06/23 12:37:18;;;;;;;11.43;4.63;;;40.60;52.80;;;;;;5053316;28;20067;-67
2022/06/23 12:40:02;;;;;;;11.88;5.13;;;39.80;53.50;;;;;;5052644;28;20462;-65
2022/06/23 12:42:36;;;;;;;11.73;5.18;;;39.60;53.70;;;;;;5053349;28;20028;-65
2022/06/23 12:45:40;;;;;;;13.35;4.80;;;39.20;54.00;;;;;;5053319;28;20043;-68
2022/06/23 12:48:23;;;;;;;13.23;4.88;;;39.00;54.50;;;;;;4999057;28;20074;-65
2022/06/23 12:51:23;;;;;;;10.38;4.53;;;38.90;54.60;;;;;;5053345;28;20025;-64
2022/06/23 12:54:01;;;;;;;12.40;4.65;;;38.90;54.30;;;;;;5053248;28;20029;-66
2022/06/23 12:56:35;;;;;;;15.25;4.10;;;38.80;53.90;;;;;;5053185;28;20024;-64
2022/06/23 12:59:16;;;;;;;12.57;3.95;;;38.40;54.60;;;;;;5053247;28;20017;-65
2022/06/23 13:01:47;;;;;;;10.95;4.05;;;38.20;54.80;;;;;;5052241;28;20024;-67
2022/06/23 13:04:24;;;;;;;9.80;3.95;;;37.60;55.20;;;;;;5049101;28;20490;-67
2022/06/23 13:07:24;;;;;;;9.07;3.90;;;37.20;55.90;;;;;;5041752;28;20036;-64
2022/06/23 13:10:22;;;;;;;9.02;3.70;;;37.00;55.70;;;;;;5051966;28;20031;-67
2022/06/23 13:13:00;;;;;;;12.65;5.03;;;36.80;55.90;;;;;;5033528;28;20466;-68
2022/06/23 13:15:48;;;;;;;11.57;6.00;;;36.50;56.60;;;;;;5032919;28;20406;-63
2022/06/23 13:18:26;;;;;;;8.40;3.60;;;36.20;56.60;;;;;;5033590;28;20044;-65
2022/06/23 13:21:13;;;;;;;13.38;4.40;;;36.10;57.00;;;;;;5033236;28;20033;-65
2022/06/23 13:23:51;;;;;;;12.18;4.13;;;36.10;57.30;;;;;;5047277;28;20013;-65
2022/06/23 13:26:22;;;;;;;11.40;3.88;;;35.90;57.60;;;;;;5038304;28;20038;-64
2022/06/23 13:29:14;;;;;;;8.73;3.60;;;35.90;57.80;;;;;;5032941;28;20020;-64
2022/06/23 13:32:00;;;;;;;9.82;4.40;;;35.90;58.30;;;;;;5032212;28;20125;-64
2022/06/23 13:34:32;;;;;;;10.93;3.97;;;35.80;58.10;;;;;;5032522;28;20018;-67
2022/06/23 13:37:28;;;;;;;12.35;4.05;;;35.70;58.10;;;;;;5033033;28;20478;-64
2022/06/23 13:40:19;;;;;;;8.35;3.95;;;35.60;58.60;;;;;;5032998;28;20071;-64
2022/06/23 13:42:51;;;;;;;12.75;4.53;;;35.30;58.70;;;;;;5040635;28;20105;-64
2022/06/23 13:45:25;;;;;;;;;;;35.20;59.60;;;;;;5032985;28;20048;-63
2022/06/23 13:47:58;;;;;;;8.40;4.00;;;35.30;60.00;;;;;;5032172;28;19963;-65
2022/06/23 13:50:47;;;;;;;11.27;3.90;;;35.40;59.70;;;;;;5062094;28;20401;-65